createdAt,value
2023-01-09T00:00:20.821Z,93902
2023-01-09T00:01:23.365Z,93903.2
2023-01-09T00:02:26.111Z,93910.4
2023-01-09T00:03:28.496Z,93910.9
2023-01-09T00:04:31.056Z,93913.2
2023-01-09T00:05:33.612Z,93916.6
2023-01-09T00:06:36.139Z,93917.9
2023-01-09T00:07:38.656Z,93921.3
2023-01-09T00:08:40.897Z,93920.5
2023-01-09T00:09:43.452Z,93925.8
2023-01-09T00:10:45.947Z,93930.4
2023-01-09T00:11:48.181Z,93935.5
2023-01-09T00:12:50.798Z,93928.2
2023-01-09T00:13:53.090Z,93933.8
2023-01-09T00:14:55.323Z,93933.4
2023-01-09T00:15:57.071Z,93930.4
2023-01-09T00:16:59.479Z,93930.8
2023-01-09T00:18:02.157Z,93929.4
2023-01-09T00:19:04.737Z,93932.9
2023-01-09T00:20:06.790Z,93927.7
2023-01-09T00:21:09.066Z,93930.6
2023-01-09T00:22:11.344Z,93931.7
2023-01-09T00:23:13.863Z,93928.4
2023-01-09T00:24:16.386Z,93929.6
2023-01-09T00:25:18.626Z,93929.7
2023-01-09T00:26:21.162Z,93925.5
2023-01-09T00:27:23.643Z,93927
2023-01-09T00:28:25.870Z,93928.1
2023-01-09T00:29:28.397Z,93926.6
2023-01-09T00:30:30.490Z,93930.2
2023-01-09T00:31:32.867Z,93930.2
2023-01-09T00:32:35.370Z,93929.6
2023-01-09T00:33:37.628Z,93926.3
2023-01-09T00:34:40.223Z,93920
2023-01-09T00:35:42.227Z,93916.8
2023-01-09T00:36:44.791Z,93911.9
2023-01-09T00:37:47.291Z,93913.9
2023-01-09T00:38:49.822Z,93915.6
2023-01-09T00:39:52.060Z,93916
2023-01-09T00:40:54.311Z,93917.7
2023-01-09T00:41:56.560Z,93919.3
2023-01-09T00:42:58.796Z,93919.8
2023-01-09T00:45:07.354Z,93918.2
2023-01-09T00:46:09.666Z,93924.5
2023-01-09T00:47:12.241Z,93923.5
2023-01-09T00:48:14.757Z,93918.6
2023-01-09T00:49:17.040Z,93921.9
2023-01-09T00:50:19.605Z,93919.8
2023-01-09T00:51:21.898Z,93915.3
2023-01-09T00:52:24.191Z,93910.8
2023-01-09T00:53:26.720Z,93911.9
2023-01-09T00:54:28.971Z,93912.3
2023-01-09T00:55:31.516Z,93922.3
2023-01-09T00:56:33.728Z,93916.8
2023-01-09T00:57:35.970Z,93914.4
2023-01-09T00:58:38.484Z,93912.4
2023-01-09T00:59:40.995Z,93909.7
2023-01-09T01:00:43.486Z,93912.9
2023-01-09T01:01:46.822Z,93910.9
2023-01-09T01:02:49.682Z,93911.3
2023-01-09T01:03:52.373Z,93910.6
2023-01-09T01:04:54.594Z,93903.5
2023-01-09T01:05:57.180Z,93904.6
2023-01-09T01:06:59.694Z,93900.9
2023-01-09T01:08:01.957Z,93900.5
2023-01-09T01:09:04.463Z,93904
2023-01-09T01:10:06.965Z,93905.4
2023-01-09T01:11:09.455Z,93901.9
2023-01-09T01:12:11.692Z,93899.3
2023-01-09T01:13:14.187Z,93911.7
2023-01-09T01:14:16.408Z,93909.2
2023-01-09T01:15:18.665Z,93897.5
2023-01-09T01:16:21.544Z,93911.5
2023-01-09T01:17:23.840Z,93918.1
2023-01-09T01:18:26.406Z,93910.5
2023-01-09T01:19:28.908Z,93899.8
2023-01-09T01:20:31.430Z,93898.5
2023-01-09T01:21:33.975Z,93903.4
2023-01-09T01:22:36.523Z,93896.7
2023-01-09T01:23:38.777Z,93898.9
2023-01-09T01:24:41.052Z,93889.4
2023-01-09T01:25:43.339Z,93895.7
2023-01-09T01:26:45.843Z,93899.1
2023-01-09T01:27:48.379Z,93897.5
2023-01-09T01:28:50.904Z,93891.5
2023-01-09T01:29:53.400Z,93895
2023-01-09T01:30:55.229Z,93892.9
2023-01-09T01:31:57.838Z,93897.5
2023-01-09T01:33:00.361Z,93892.6
2023-01-09T01:34:02.928Z,93899.8
2023-01-09T01:35:05.453Z,93905.7
2023-01-09T01:36:07.998Z,93902.8
2023-01-09T01:37:10.323Z,93900.3
2023-01-09T01:38:12.863Z,93905.2
2023-01-09T01:39:15.443Z,93904.5
2023-01-09T01:40:17.938Z,93898.4
2023-01-09T01:41:19.586Z,93899.6
2023-01-09T01:42:21.848Z,93901.2
2023-01-09T01:43:24.094Z,93899.6
2023-01-09T01:44:26.596Z,93900.9
2023-01-09T01:45:28.826Z,93897
2023-01-09T01:46:31.187Z,93895.1
2023-01-09T01:47:33.704Z,93897.6
2023-01-09T01:48:35.915Z,93895.6
2023-01-09T01:49:38.149Z,93898.7
2023-01-09T01:50:40.659Z,93896
2023-01-09T01:51:42.908Z,93890.7
2023-01-09T01:52:45.596Z,93897.3
2023-01-09T01:53:48.107Z,93892.3
2023-01-09T01:54:50.383Z,93894.8
2023-01-09T01:55:52.913Z,93895.2
2023-01-09T01:56:55.135Z,93896.4
2023-01-09T01:57:57.340Z,93887.8
2023-01-09T01:58:59.601Z,93886.3
2023-01-09T02:00:01.847Z,93880.9
2023-01-09T02:01:04.931Z,93881.2
2023-01-09T02:02:08.478Z,93880
2023-01-09T02:03:11.462Z,93888.1
2023-01-09T02:04:13.688Z,93891.8
2023-01-09T02:05:15.984Z,93897.3
2023-01-09T02:06:18.504Z,93901.6
2023-01-09T02:07:21.027Z,93907.2
2023-01-09T02:08:23.599Z,93904
2023-01-09T02:09:25.937Z,93905.1
2023-01-09T02:10:28.530Z,93901.8
2023-01-09T02:11:30.764Z,93896.2
2023-01-09T02:12:33.003Z,93901
2023-01-09T02:13:35.523Z,93896.8
2023-01-09T02:14:37.751Z,93900.8
2023-01-09T02:15:40.301Z,93897.4
2023-01-09T02:16:42.873Z,93891.7
2023-01-09T02:17:45.373Z,93898.2
2023-01-09T02:18:47.878Z,93899.8
2023-01-09T02:19:50.390Z,93900.5
2023-01-09T02:20:52.641Z,93900.1
2023-01-09T02:21:54.883Z,93898.4
2023-01-09T02:22:57.408Z,93891.3
2023-01-09T02:23:59.983Z,93889.5
2023-01-09T02:25:02.533Z,93892.7
2023-01-09T02:26:04.842Z,93895.4
2023-01-09T02:27:06.778Z,93888.7
2023-01-09T02:28:08.985Z,93893.2
2023-01-09T02:29:11.196Z,93891.9
2023-01-09T02:30:13.709Z,93892.1
2023-01-09T02:31:16.186Z,93896.1
2023-01-09T02:32:18.527Z,93899.6
2023-01-09T02:33:21.037Z,93898.1
2023-01-09T02:34:23.635Z,93899.5
2023-01-09T02:35:26.158Z,93898
2023-01-09T02:36:28.708Z,93899.9
2023-01-09T02:37:30.924Z,93899.2
2023-01-09T02:38:33.149Z,93893.3
2023-01-09T02:39:35.775Z,93886.1
2023-01-09T02:40:38.305Z,93884.8
2023-01-09T02:41:40.880Z,93887.3
2023-01-09T02:42:43.418Z,93888.5
2023-01-09T02:43:45.686Z,93879.2
2023-01-09T02:44:47.898Z,93873
2023-01-09T02:45:50.322Z,93867.6
2023-01-09T02:46:52.691Z,93874
2023-01-09T02:47:54.913Z,93875.2
2023-01-09T02:48:57.416Z,93877.9
2023-01-09T02:49:59.911Z,93871.7
2023-01-09T02:51:02.164Z,93870
2023-01-09T02:52:04.438Z,93865.1
2023-01-09T02:53:06.700Z,93867.7
2023-01-09T02:54:09.223Z,93872.3
2023-01-09T02:55:11.877Z,93878
2023-01-09T02:56:14.419Z,93878
2023-01-09T02:57:16.940Z,93882
2023-01-09T02:58:19.461Z,93874.9
2023-01-09T02:59:21.970Z,93873.5
2023-01-09T03:00:24.495Z,93867.1
2023-01-09T03:01:27.425Z,93871.4
2023-01-09T03:02:30.191Z,93871.9
2023-01-09T03:03:32.433Z,93875
2023-01-09T03:04:34.957Z,93878.6
2023-01-09T03:05:37.490Z,93882.5
2023-01-09T03:06:39.737Z,93883.8
2023-01-09T03:07:41.689Z,93884.9
2023-01-09T03:08:44.198Z,93886.5
2023-01-09T03:09:46.425Z,93882.6
2023-01-09T03:10:48.428Z,93878.3
2023-01-09T03:11:50.960Z,93882.5
2023-01-09T03:12:53.484Z,93881.4
2023-01-09T03:13:55.986Z,93881.8
2023-01-09T03:14:58.499Z,93877.8
2023-01-09T03:16:01.284Z,93875.8
2023-01-09T03:17:03.864Z,93874.7
2023-01-09T03:18:06.090Z,93868.7
2023-01-09T03:19:08.601Z,93864
2023-01-09T03:20:11.123Z,93868.6
2023-01-09T03:21:13.622Z,93866.8
2023-01-09T03:22:16.162Z,93867.6
2023-01-09T03:23:18.748Z,93869
2023-01-09T03:24:20.970Z,93869.4
2023-01-09T03:25:23.492Z,93871
2023-01-09T03:26:26.089Z,93873.9
2023-01-09T03:27:28.363Z,93874.4
2023-01-09T03:28:30.924Z,93874.5
2023-01-09T03:29:33.417Z,93871.6
2023-01-09T03:30:35.648Z,93871.6
2023-01-09T03:31:38.515Z,93875.5
2023-01-09T03:32:40.578Z,93872.9
2023-01-09T03:33:42.785Z,93874.3
2023-01-09T03:34:45.285Z,93876.1
2023-01-09T03:35:47.799Z,93877.7
2023-01-09T03:36:50.063Z,93886.2
2023-01-09T03:37:52.283Z,93884.4
2023-01-09T03:38:54.820Z,93887.2
2023-01-09T03:39:57.331Z,93883.9
2023-01-09T03:40:59.842Z,93888.9
2023-01-09T03:42:02.137Z,93886.6
2023-01-09T03:43:04.685Z,93891
2023-01-09T03:44:07.218Z,93881.2
2023-01-09T03:45:09.457Z,93878.9
2023-01-09T03:46:12.309Z,93887.1
2023-01-09T03:47:14.714Z,93884
2023-01-09T03:48:16.688Z,93884.3
2023-01-09T03:49:18.921Z,93884.6
2023-01-09T03:50:21.266Z,93885
2023-01-09T03:51:23.753Z,93887.3
2023-01-09T03:52:26.241Z,93884.3
2023-01-09T03:53:28.755Z,93884.2
2023-01-09T03:54:31.280Z,93885.4
2023-01-09T03:55:33.810Z,93887
2023-01-09T03:56:36.353Z,93884.7
2023-01-09T03:57:38.911Z,93887.1
2023-01-09T03:58:41.461Z,93886.8
2023-01-09T03:59:44.002Z,93885.7
2023-01-09T04:00:46.813Z,93882
2023-01-09T04:01:50.148Z,93883.3
2023-01-09T04:02:52.935Z,93891.2
2023-01-09T04:03:55.393Z,93892.3
2023-01-09T04:04:57.688Z,93890.5
2023-01-09T04:06:00.252Z,93886.9
2023-01-09T04:07:02.511Z,93888.7
2023-01-09T04:08:05.017Z,93886.6
2023-01-09T04:09:07.233Z,93883
2023-01-09T04:10:09.494Z,93879.6
2023-01-09T04:11:12.055Z,93885.3
2023-01-09T04:12:14.624Z,93891.6
2023-01-09T04:13:16.897Z,93892.6
2023-01-09T04:14:19.180Z,93899.2
2023-01-09T04:15:21.426Z,93897.3
2023-01-09T04:16:24.125Z,93897.3
2023-01-09T04:17:26.748Z,93901.3
2023-01-09T04:18:29.248Z,93903.4
2023-01-09T04:19:31.894Z,93909.6
2023-01-09T04:20:33.840Z,93899.5
2023-01-09T04:21:36.338Z,93908.1
2023-01-09T04:22:38.531Z,93905
2023-01-09T04:23:41.184Z,93909.3
2023-01-09T04:24:43.706Z,93913.1
2023-01-09T04:25:45.951Z,93912
2023-01-09T04:26:48.437Z,93915.1
2023-01-09T04:27:50.915Z,93919.6
2023-01-09T04:28:53.476Z,93919.4
2023-01-09T04:29:56.004Z,93918.5
2023-01-09T04:30:58.549Z,93917.6
2023-01-09T04:32:01.084Z,93925
2023-01-09T04:33:03.325Z,93927.3
2023-01-09T04:34:05.903Z,93931
2023-01-09T04:35:08.114Z,93928.3
2023-01-09T04:36:10.622Z,93928.4
2023-01-09T04:37:12.856Z,93935.4
2023-01-09T04:38:15.393Z,93944
2023-01-09T04:39:17.910Z,93947.7
2023-01-09T04:40:19.585Z,93951.2
2023-01-09T04:41:22.119Z,93951.5
2023-01-09T04:42:24.391Z,93952.2
2023-01-09T04:43:26.942Z,93949
2023-01-09T04:44:29.507Z,93957.9
2023-01-09T04:45:32.343Z,93957.9
2023-01-09T04:46:34.998Z,93961
2023-01-09T04:47:37.537Z,93959.8
2023-01-09T04:48:40.040Z,93966.1
2023-01-09T04:49:42.528Z,93970.3
2023-01-09T04:50:44.518Z,93966.3
2023-01-09T04:51:47.031Z,93977.3
2023-01-09T04:52:49.566Z,93974.1
2023-01-09T04:53:51.828Z,93977.1
2023-01-09T04:54:54.094Z,93978.5
2023-01-09T04:55:56.597Z,93984.8
2023-01-09T04:56:59.127Z,93982.8
2023-01-09T04:58:01.639Z,93986.6
2023-01-09T04:59:04.149Z,93986.1
2023-01-09T05:00:06.718Z,93981.5
2023-01-09T05:01:09.764Z,93995
2023-01-09T05:02:13.320Z,93992
2023-01-09T05:03:15.977Z,93988.8
2023-01-09T05:04:18.648Z,94003.4
2023-01-09T05:05:21.405Z,93986.4
2023-01-09T05:06:23.943Z,94002.5
2023-01-09T05:07:26.309Z,94000.1
2023-01-09T05:08:28.669Z,94008.8
2023-01-09T05:09:31.230Z,94004.1
2023-01-09T05:10:33.809Z,94021.5
2023-01-09T05:11:36.309Z,94008.6
2023-01-09T05:12:39.088Z,94021.1
2023-01-09T05:13:41.645Z,94021.9
2023-01-09T05:14:43.887Z,94016.4
2023-01-09T05:15:45.915Z,94038.5
2023-01-09T05:16:48.653Z,94039
2023-01-09T05:17:51.034Z,94035.2
2023-01-09T05:18:53.265Z,94036.5
2023-01-09T05:19:55.540Z,94043.7
2023-01-09T05:20:58.074Z,94038.7
2023-01-09T05:22:00.318Z,94041.2
2023-01-09T05:23:02.555Z,94046.9
2023-01-09T05:24:04.782Z,94051.5
2023-01-09T05:25:07.323Z,94054.7
2023-01-09T05:26:09.856Z,94056.3
2023-01-09T05:27:12.087Z,94050.3
2023-01-09T05:28:14.624Z,94057.6
2023-01-09T05:29:17.179Z,94052.5
2023-01-09T05:30:20.125Z,94059.3
2023-01-09T05:31:22.864Z,94067.3
2023-01-09T05:32:25.419Z,94089.4
2023-01-09T05:33:27.429Z,94072.1
2023-01-09T05:34:29.948Z,94105.3
2023-01-09T05:35:32.210Z,94087.2
2023-01-09T05:36:34.465Z,94072.1
2023-01-09T05:37:36.729Z,94096.1
2023-01-09T05:38:39.230Z,94099.6
2023-01-09T05:39:41.211Z,94078.8
2023-01-09T05:40:43.447Z,94084.7
2023-01-09T05:41:45.977Z,94097.9
2023-01-09T05:42:48.186Z,94082.3
2023-01-09T05:43:50.745Z,94090.3
2023-01-09T05:44:53.270Z,94077.3
2023-01-09T05:45:56.006Z,94085.5
2023-01-09T05:46:58.617Z,94081.8
2023-01-09T05:48:02.367Z,94088
2023-01-09T05:49:04.940Z,94086.8
2023-01-09T05:50:07.493Z,94078.4
2023-01-09T05:51:10.030Z,94091.7
2023-01-09T05:52:11.784Z,94087.2
2023-01-09T05:53:14.579Z,94093.2
2023-01-09T05:54:17.329Z,94099.9
2023-01-09T05:55:19.870Z,94107.4
2023-01-09T05:56:22.126Z,94104.3
2023-01-09T05:57:24.395Z,94107.1
2023-01-09T05:58:26.356Z,94100.5
2023-01-09T05:59:28.873Z,94103.8
2023-01-09T06:00:31.391Z,94098
2023-01-09T06:01:34.059Z,94099.4
2023-01-09T06:02:37.667Z,94093.7
2023-01-09T06:03:40.539Z,94079.9
2023-01-09T06:04:43.063Z,94092
2023-01-09T06:05:45.610Z,94094.6
2023-01-09T06:06:48.120Z,94105.3
2023-01-09T06:07:50.652Z,94111.6
2023-01-09T06:08:52.915Z,94108.2
2023-01-09T06:09:55.143Z,94108.9
2023-01-09T06:10:57.652Z,94121
2023-01-09T06:12:00.145Z,94117.7
2023-01-09T06:13:02.639Z,94121
2023-01-09T06:14:04.932Z,94120.7
2023-01-09T06:16:12.492Z,94127.5
2023-01-09T06:17:14.882Z,94133
2023-01-09T06:18:17.482Z,94134.5
2023-01-09T06:19:20.037Z,94139.4
2023-01-09T06:20:22.569Z,94133.4
2023-01-09T06:21:24.851Z,94138.9
2023-01-09T06:22:27.401Z,94135.7
2023-01-09T06:23:29.354Z,94145.4
2023-01-09T06:24:31.589Z,94153
2023-01-09T06:25:33.823Z,94150.7
2023-01-09T06:26:36.344Z,94159.7
2023-01-09T06:27:38.570Z,94166.9
2023-01-09T06:28:41.419Z,94179.1
2023-01-09T06:29:48.722Z,94165.7
2023-01-09T06:30:51.185Z,94192.1
2023-01-09T06:31:53.514Z,94171.1
2023-01-09T06:32:55.506Z,94182.2
2023-01-09T06:33:58.182Z,94188.2
2023-01-09T06:35:00.850Z,94174.4
2023-01-09T06:36:03.522Z,94169.9
2023-01-09T06:37:06.040Z,94175
2023-01-09T06:38:08.543Z,94182.6
2023-01-09T06:39:11.060Z,94177.5
2023-01-09T06:40:13.322Z,94179.2
2023-01-09T06:41:15.543Z,94193.3
2023-01-09T06:42:18.116Z,94233.4
2023-01-09T06:43:20.930Z,94195.6
2023-01-09T06:44:23.628Z,94202.8
2023-01-09T06:45:26.031Z,94199.3
2023-01-09T06:46:28.633Z,94198.6
2023-01-09T06:47:31.009Z,94215
2023-01-09T06:48:33.557Z,94203.4
2023-01-09T06:49:36.101Z,94200.7
2023-01-09T06:50:38.654Z,94199
2023-01-09T06:51:40.935Z,94199.7
2023-01-09T06:52:43.484Z,94212.9
2023-01-09T06:53:45.437Z,94202
2023-01-09T06:54:47.418Z,94207.3
2023-01-09T06:55:49.920Z,94211
2023-01-09T06:56:52.460Z,94203.8
2023-01-09T06:57:55.297Z,94205.4
2023-01-09T06:58:57.829Z,94200.8
2023-01-09T07:00:00.330Z,94207.3
2023-01-09T07:01:03.288Z,94206.2
2023-01-09T07:02:06.100Z,94215.8
2023-01-09T07:03:08.760Z,94216.5
2023-01-09T07:04:11.552Z,94211.6
2023-01-09T07:05:13.698Z,94219.7
2023-01-09T07:06:16.270Z,94217.8
2023-01-09T07:07:18.844Z,94227.4
2023-01-09T07:08:21.093Z,94219.8
2023-01-09T07:09:23.614Z,94223.7
2023-01-09T07:10:25.846Z,94228.3
2023-01-09T07:11:28.372Z,94233.7
2023-01-09T07:12:29.765Z,94235.3
2023-01-09T07:13:32.010Z,94225.8
2023-01-09T07:14:34.540Z,94235.7
2023-01-09T07:15:36.820Z,94235.7
2023-01-09T07:16:39.116Z,94237.5
2023-01-09T07:17:41.642Z,94248.1
2023-01-09T07:18:43.929Z,94240.6
2023-01-09T07:19:46.479Z,94240.2
2023-01-09T07:20:48.525Z,94247.4
2023-01-09T07:21:51.078Z,94247.8
2023-01-09T07:22:53.807Z,94245.8
2023-01-09T07:23:56.326Z,94251.2
2023-01-09T07:24:58.668Z,94262.1
2023-01-09T07:26:00.940Z,94257.7
2023-01-09T07:27:03.563Z,94273.4
2023-01-09T07:28:06.166Z,94263.8
2023-01-09T07:29:08.700Z,94278.1
2023-01-09T07:30:11.239Z,94285.8
2023-01-09T07:31:13.698Z,94288.8
2023-01-09T07:32:16.318Z,94284.8
2023-01-09T07:33:18.273Z,94288.8
2023-01-09T07:34:20.866Z,94296.1
2023-01-09T07:35:23.466Z,94298.5
2023-01-09T07:36:25.504Z,94301.5
2023-01-09T07:37:28.098Z,94301.6
2023-01-09T07:38:30.643Z,94299.7
2023-01-09T07:39:33.199Z,94305
2023-01-09T07:40:35.527Z,94302.9
2023-01-09T07:41:37.763Z,94307.4
2023-01-09T07:42:40.006Z,94314
2023-01-09T07:43:42.242Z,94304.3
2023-01-09T07:44:44.518Z,94303.4
2023-01-09T07:45:46.763Z,94304.2
2023-01-09T07:46:49.283Z,94302.9
2023-01-09T07:47:51.790Z,94302.1
2023-01-09T07:48:53.999Z,94299.5
2023-01-09T07:49:56.308Z,94304.6
2023-01-09T07:50:58.826Z,94304.7
2023-01-09T07:52:01.408Z,94311.2
2023-01-09T07:53:04.049Z,94302.3
2023-01-09T07:54:06.639Z,94310.2
2023-01-09T07:55:08.879Z,94309.4
2023-01-09T07:56:11.104Z,94305.7
2023-01-09T07:57:13.749Z,94306
2023-01-09T07:58:16.287Z,94311.7
2023-01-09T07:59:18.836Z,94303.4
2023-01-09T08:00:21.213Z,94313.4
2023-01-09T08:01:24.451Z,94319.1
2023-01-09T08:02:27.100Z,94311.9
2023-01-09T08:03:29.788Z,94316.1
2023-01-09T08:04:32.319Z,94317.1
2023-01-09T08:05:34.938Z,94322.5
2023-01-09T08:06:37.542Z,94321.6
2023-01-09T08:07:40.191Z,94322.3
2023-01-09T08:08:42.454Z,94325.6
2023-01-09T08:09:45.140Z,94346.5
2023-01-09T08:10:47.793Z,94336.3
2023-01-09T08:11:50.103Z,94334.4
2023-01-09T08:12:52.666Z,94344.6
2023-01-09T08:13:55.205Z,94337.4
2023-01-09T08:14:57.542Z,94343.4
2023-01-09T08:16:00.384Z,94345.8
2023-01-09T08:17:02.639Z,94349.7
2023-01-09T08:18:05.201Z,94344.5
2023-01-09T08:19:07.810Z,94341.9
2023-01-09T08:20:10.052Z,94349.4
2023-01-09T08:21:12.640Z,94351.2
2023-01-09T08:22:15.054Z,94348.9
2023-01-09T08:23:17.738Z,94348.7
2023-01-09T08:24:20.297Z,94347
2023-01-09T08:25:22.640Z,94350.9
2023-01-09T08:26:25.233Z,94357.7
2023-01-09T08:27:27.491Z,94360.6
2023-01-09T08:28:29.835Z,94361.5
2023-01-09T08:29:32.366Z,94363.6
2023-01-09T08:30:34.355Z,94365.8
2023-01-09T08:31:37.158Z,94369.4
2023-01-09T08:32:39.809Z,94362.9
2023-01-09T08:33:42.233Z,94367.1
2023-01-09T08:34:44.711Z,94366.2
2023-01-09T08:35:47.525Z,94381.6
2023-01-09T08:36:50.189Z,94369.1
2023-01-09T08:37:52.856Z,94373.2
2023-01-09T08:38:55.433Z,94378.3
2023-01-09T08:39:57.978Z,94378.6
2023-01-09T08:41:00.377Z,94378.2
2023-01-09T08:42:02.935Z,94372
2023-01-09T08:43:04.892Z,94382.4
2023-01-09T08:44:07.400Z,94374.6
2023-01-09T08:45:09.372Z,94371.5
2023-01-09T08:46:11.626Z,94375.6
2023-01-09T08:47:13.667Z,94381
2023-01-09T08:48:16.229Z,94389
2023-01-09T08:49:18.739Z,94391.1
2023-01-09T08:50:20.968Z,94399.2
2023-01-09T08:51:23.495Z,94378.2
2023-01-09T08:52:25.766Z,94414.3
2023-01-09T08:53:28.279Z,94386.5
2023-01-09T08:55:35.363Z,94381.2
2023-01-09T08:56:37.943Z,94386.7
2023-01-09T08:57:40.462Z,94384.5
2023-01-09T08:58:42.729Z,94386.5
2023-01-09T08:59:45.248Z,94379.5
2023-01-09T09:00:47.788Z,94377.6
2023-01-09T09:01:50.913Z,94383.8
2023-01-09T09:02:53.409Z,94393.6
2023-01-09T09:03:55.538Z,94383.3
2023-01-09T09:04:57.527Z,94399.3
2023-01-09T09:06:00.214Z,94395.6
2023-01-09T09:07:02.217Z,94384.8
2023-01-09T09:08:04.740Z,94395.1
2023-01-09T09:09:07.247Z,94387.7
2023-01-09T09:10:09.538Z,94390.5
2023-01-09T09:11:12.113Z,94388
2023-01-09T09:12:14.729Z,94396.2
2023-01-09T09:13:16.957Z,94394.8
2023-01-09T09:14:19.490Z,94402
2023-01-09T09:15:22.022Z,94397.4
2023-01-09T09:16:24.802Z,94397.1
2023-01-09T09:17:26.986Z,94402.1
2023-01-09T09:18:29.527Z,94404.5
2023-01-09T09:19:31.762Z,94384.2
2023-01-09T09:20:33.751Z,94390.8
2023-01-09T09:21:36.013Z,94395.5
2023-01-09T09:22:38.249Z,94389.6
2023-01-09T09:23:41.050Z,94394.1
2023-01-09T09:24:42.796Z,94395.8
2023-01-09T09:25:45.051Z,94394
2023-01-09T09:26:47.352Z,94388.4
2023-01-09T09:27:49.984Z,94391.1
2023-01-09T09:28:52.519Z,94396.2
2023-01-09T09:29:54.739Z,94405.2
2023-01-09T09:30:57.156Z,94393.4
2023-01-09T09:33:03.948Z,94394.8
2023-01-09T09:34:06.232Z,94383.1
2023-01-09T09:35:08.518Z,94379.4
2023-01-09T09:36:11.091Z,94390.1
2023-01-09T09:37:13.934Z,94388.8
2023-01-09T09:38:16.259Z,94394.9
2023-01-09T09:39:18.348Z,94404.9
2023-01-09T09:40:20.611Z,94409.1
2023-01-09T09:41:22.307Z,94409
2023-01-09T09:42:24.607Z,94399.5
2023-01-09T09:43:27.240Z,94414
2023-01-09T09:44:29.509Z,94415.7
2023-01-09T09:45:32.033Z,94402.2
2023-01-09T09:46:34.606Z,94400.6
2023-01-09T09:47:36.956Z,94402.4
2023-01-09T09:48:38.928Z,94404.1
2023-01-09T09:49:41.210Z,94403.3
2023-01-09T09:50:43.724Z,94400.5
2023-01-09T09:51:46.260Z,94402
2023-01-09T09:52:48.757Z,94399
2023-01-09T09:53:51.279Z,94407.6
2023-01-09T09:54:53.837Z,94406.2
2023-01-09T09:55:56.150Z,94411.8
2023-01-09T09:56:58.402Z,94405.7
2023-01-09T09:58:00.967Z,94400.8
2023-01-09T09:59:03.274Z,94404.9
2023-01-09T10:00:05.561Z,94404.2
2023-01-09T10:01:07.828Z,94416.5
2023-01-09T10:02:10.120Z,94406.3
2023-01-09T10:03:13.925Z,94406.7
2023-01-09T10:04:19.247Z,94400
2023-01-09T10:05:21.801Z,94399.4
2023-01-09T10:06:24.452Z,94396.5
2023-01-09T10:07:27.003Z,94395
2023-01-09T10:08:29.527Z,94400.8
2023-01-09T10:09:32.070Z,94395.2
2023-01-09T10:10:34.090Z,94395.8
2023-01-09T10:11:36.630Z,94379.9
2023-01-09T10:12:39.238Z,94379.1
2023-01-09T10:13:41.838Z,94370.7
2023-01-09T10:14:44.049Z,94367.9
2023-01-09T10:15:46.307Z,94371.3
2023-01-09T10:16:48.459Z,94372.6
2023-01-09T10:17:50.422Z,94371.8
2023-01-09T10:18:52.942Z,94374
2023-01-09T10:19:54.933Z,94375.1
2023-01-09T10:20:57.200Z,94376.9
2023-01-09T10:21:59.186Z,94382.5
2023-01-09T10:23:01.447Z,94390.4
2023-01-09T10:24:03.734Z,94378.3
2023-01-09T10:25:06.258Z,94390.1
2023-01-09T10:26:09.021Z,94380.9
2023-01-09T10:27:11.303Z,94385.1
2023-01-09T10:28:13.847Z,94368.4
2023-01-09T10:29:16.440Z,94374.9
2023-01-09T10:30:19.037Z,94384.5
2023-01-09T10:31:21.645Z,94377.8
2023-01-09T10:32:24.215Z,94379.6
2023-01-09T10:33:26.772Z,94375.3
2023-01-09T10:34:29.046Z,94377.8
2023-01-09T10:36:36.779Z,94376.4
2023-01-09T10:37:39.427Z,94368.9
2023-01-09T10:38:41.691Z,94369.1
2023-01-09T10:39:44.014Z,94375.6
2023-01-09T10:40:46.285Z,94374.3
2023-01-09T10:41:48.320Z,94369.6
2023-01-09T10:42:50.628Z,94369.1
2023-01-09T10:43:53.195Z,94393.5
2023-01-09T10:44:55.908Z,94364.7
2023-01-09T10:45:58.244Z,94370.9
2023-01-09T10:47:00.913Z,94376.4
2023-01-09T10:48:03.222Z,94381.3
2023-01-09T10:49:05.725Z,94391
2023-01-09T10:50:08.256Z,94383.2
2023-01-09T10:51:10.515Z,94384.8
2023-01-09T10:52:16.119Z,94379
2023-01-09T10:53:18.681Z,94389.5
2023-01-09T10:54:21.236Z,94378.8
2023-01-09T10:55:23.204Z,94385.9
2023-01-09T10:56:25.543Z,94377.7
2023-01-09T10:57:28.092Z,94385.5
2023-01-09T10:58:30.331Z,94377.7
2023-01-09T10:59:32.398Z,94381.5
2023-01-09T11:00:34.731Z,94372.2
2023-01-09T11:01:37.349Z,94378.7
2023-01-09T11:02:40.319Z,94374.9
2023-01-09T11:03:43.201Z,94375.2
2023-01-09T11:04:45.488Z,94373.1
2023-01-09T11:05:47.717Z,94369.9
2023-01-09T11:06:49.981Z,94372.2
2023-01-09T11:07:52.547Z,94377.1
2023-01-09T11:08:55.059Z,94368.4
2023-01-09T11:09:57.348Z,94371.5
2023-01-09T11:10:59.604Z,94379
2023-01-09T11:12:02.158Z,94370.7
2023-01-09T11:13:04.394Z,94384.2
2023-01-09T11:14:07.119Z,94370
2023-01-09T11:15:09.641Z,94367.9
2023-01-09T11:16:12.671Z,94369.6
2023-01-09T11:17:15.157Z,94370.9
2023-01-09T11:18:17.462Z,94369.7
2023-01-09T11:19:19.994Z,94366.7
2023-01-09T11:20:21.953Z,94365.9
2023-01-09T11:21:24.207Z,94365.7
2023-01-09T11:22:26.722Z,94362.6
2023-01-09T11:23:28.977Z,94362.2
2023-01-09T11:24:31.562Z,94371.1
2023-01-09T11:25:33.802Z,94362.4
2023-01-09T11:26:36.310Z,94368.4
2023-01-09T11:27:38.258Z,94381.4
2023-01-09T11:28:40.852Z,94379.3
2023-01-09T11:29:43.456Z,94374.6
2023-01-09T11:30:46.080Z,94371.2
2023-01-09T11:31:48.948Z,94373.2
2023-01-09T11:32:51.680Z,94371.1
2023-01-09T11:33:54.224Z,94381.2
2023-01-09T11:34:56.493Z,94372.4
2023-01-09T11:35:58.772Z,94372.5
2023-01-09T11:37:01.537Z,94375.2
2023-01-09T11:38:04.257Z,94378.9
2023-01-09T11:39:06.512Z,94378.1
2023-01-09T11:40:09.075Z,94380.5
2023-01-09T11:41:11.036Z,94365.8
2023-01-09T11:42:12.997Z,94376
2023-01-09T11:43:15.532Z,94371.7
2023-01-09T11:44:17.858Z,94369.4
2023-01-09T11:45:20.454Z,94374.3
2023-01-09T11:46:22.614Z,94369.3
2023-01-09T11:47:25.431Z,94368.3
2023-01-09T11:48:28.014Z,94367.4
2023-01-09T11:49:30.595Z,94370.4
2023-01-09T11:50:33.129Z,94370.9
2023-01-09T11:51:35.418Z,94372.5
2023-01-09T11:52:37.660Z,94373
2023-01-09T11:53:40.025Z,94372.2
2023-01-09T11:54:41.979Z,94365.6
2023-01-09T11:55:44.839Z,94371.7
2023-01-09T11:56:47.386Z,94366.4
2023-01-09T11:57:49.357Z,94374
2023-01-09T11:58:51.633Z,94369.7
2023-01-09T11:59:54.004Z,94368.9
2023-01-09T12:00:56.530Z,94373.5
2023-01-09T12:01:59.074Z,94360.7
2023-01-09T12:03:01.672Z,94358.2
2023-01-09T12:04:04.352Z,94358.9
2023-01-09T12:05:06.902Z,94353.8
2023-01-09T12:06:09.404Z,94358.3
2023-01-09T12:07:11.669Z,94355.3
2023-01-09T12:08:13.923Z,94361.1
2023-01-09T12:09:16.483Z,94359
2023-01-09T12:10:18.982Z,94352.1
2023-01-09T12:11:21.249Z,94361.3
2023-01-09T12:12:23.803Z,94366.9
2023-01-09T12:13:26.069Z,94359.2
2023-01-09T12:14:28.590Z,94366.9
2023-01-09T12:15:31.155Z,94363.3
2023-01-09T12:16:33.782Z,94361.6
2023-01-09T12:17:36.439Z,94366.2
2023-01-09T12:18:38.993Z,94375.2
2023-01-09T12:19:43.279Z,94366.3
2023-01-09T12:20:45.766Z,94369.3
2023-01-09T12:21:48.047Z,94368.5
2023-01-09T12:22:50.584Z,94368.3
2023-01-09T12:23:53.114Z,94364.6
2023-01-09T12:24:55.668Z,94375.8
2023-01-09T12:25:57.640Z,94371.4
2023-01-09T12:26:59.635Z,94389.1
2023-01-09T12:28:01.917Z,94372.5
2023-01-09T12:29:04.435Z,94377.7
2023-01-09T12:30:06.713Z,94372.9
2023-01-09T12:31:08.994Z,94374.8
2023-01-09T12:32:11.590Z,94372.5
2023-01-09T12:33:13.867Z,94386.3
2023-01-09T12:34:16.144Z,94396.5
2023-01-09T12:35:18.463Z,94403
2023-01-09T12:36:20.983Z,94395.7
2023-01-09T12:37:22.956Z,94389.4
2023-01-09T12:38:25.834Z,94390.5
2023-01-09T12:39:28.150Z,94388.9
2023-01-09T12:40:30.708Z,94388
2023-01-09T12:41:33.248Z,94391.5
2023-01-09T12:42:35.525Z,94389.8
2023-01-09T12:43:37.798Z,94383.5
2023-01-09T12:44:40.066Z,94396.1
2023-01-09T12:45:42.885Z,94391.7